createdAt,value
2017-11-17T00:01:50.209Z,89.95
2017-11-17T00:04:17.776Z,89.50
2017-11-17T00:06:45.362Z,89.56
2017-11-17T00:09:13.033Z,89.17
2017-11-17T00:11:40.590Z,89.58
2017-11-17T00:14:08.199Z,89.03
2017-11-17T00:16:35.785Z,88.62
2017-11-17T00:19:03.399Z,88.20
2017-11-17T00:21:30.972Z,88.19
2017-11-17T00:23:58.598Z,88.06
2017-11-17T00:26:26.174Z,88.38
2017-11-17T00:28:53.717Z,88.55
2017-11-17T00:31:21.292Z,88.12
2017-11-17T00:33:48.917Z,87.23
2017-11-17T00:36:16.491Z,86.98
2017-11-17T00:38:44.055Z,87.45
2017-11-17T00:41:11.631Z,87.63
2017-11-17T00:43:39.216Z,87.59
2017-11-17T00:46:06.774Z,87.59
2017-11-17T00:48:34.358Z,87.79
2017-11-17T00:51:01.942Z,87.87
2017-11-17T00:53:29.492Z,87.49
2017-11-17T00:55:57.101Z,87.48
2017-11-17T00:58:24.647Z,87.22
2017-11-17T01:00:52.204Z,87.44
2017-11-17T01:03:19.766Z,87.57
2017-11-17T01:05:47.318Z,87.80
2017-11-17T01:08:14.916Z,87.83
2017-11-17T01:10:42.517Z,88.46
2017-11-17T01:13:10.078Z,87.59
2017-11-17T01:15:37.654Z,87.63
2017-11-17T01:18:05.468Z,87.78
2017-11-17T01:20:33.037Z,87.43
2017-11-17T01:23:00.647Z,87.49
2017-11-17T01:25:28.195Z,87.15
2017-11-17T01:27:55.780Z,87.19
2017-11-17T01:30:23.363Z,87.05
2017-11-17T01:32:50.945Z,86.99
2017-11-17T01:35:18.499Z,87.30
2017-11-17T01:37:46.102Z,87.48
2017-11-17T01:40:13.675Z,87.56
2017-11-17T01:42:41.247Z,87.02
2017-11-17T01:45:09.173Z,87.58
2017-11-17T01:47:36.724Z,87.85
2017-11-17T01:50:04.316Z,87.93
2017-11-17T01:52:31.884Z,87.76
2017-11-17T01:54:59.472Z,87.96
2017-11-17T01:57:27.059Z,87.76
2017-11-17T01:59:54.642Z,87.62
2017-11-17T02:02:22.279Z,87.92
2017-11-17T02:04:49.870Z,88.04
2017-11-17T02:07:17.703Z,88.13
2017-11-17T02:09:45.291Z,88.18
2017-11-17T02:12:12.881Z,88.32
2017-11-17T02:14:40.450Z,88.34
2017-11-17T02:17:08.134Z,88.59
2017-11-17T02:19:35.693Z,89.05
2017-11-17T02:22:03.257Z,88.65
2017-11-17T02:24:30.864Z,88.42
2017-11-17T02:26:58.437Z,88.75
2017-11-17T02:29:26.036Z,88.54
2017-11-17T02:31:53.629Z,88.55
2017-11-17T02:34:21.182Z,88.06
2017-11-17T02:36:48.777Z,88.54
2017-11-17T02:39:16.373Z,88.36
2017-11-17T02:41:43.990Z,88.42
2017-11-17T02:44:11.550Z,88.46
2017-11-17T02:46:39.123Z,88.34
2017-11-17T02:49:06.744Z,87.90
2017-11-17T02:51:34.771Z,87.92
2017-11-17T02:54:02.833Z,88.15
2017-11-17T02:56:30.425Z,87.44
2017-11-17T02:58:57.990Z,87.52
2017-11-17T03:01:25.571Z,87.72
2017-11-17T03:03:53.195Z,87.70
2017-11-17T03:06:20.750Z,87.44
2017-11-17T03:08:48.305Z,87.75
2017-11-17T03:11:16.104Z,87.83
2017-11-17T03:13:43.682Z,87.81
2017-11-17T03:16:11.299Z,87.95
2017-11-17T03:18:38.890Z,88.21
2017-11-17T03:21:06.566Z,87.69
2017-11-17T03:23:34.453Z,87.29
2017-11-17T03:26:02.235Z,87.45
2017-11-17T03:28:29.890Z,87.41
2017-11-17T03:30:57.578Z,87.10
2017-11-17T03:33:25.158Z,87.19
2017-11-17T03:35:52.840Z,87.44
2017-11-17T03:38:20.441Z,87.01
2017-11-17T03:40:48.040Z,86.81
2017-11-17T03:43:15.642Z,86.67
2017-11-17T03:45:43.262Z,86.73
2017-11-17T03:48:10.863Z,86.93
2017-11-17T03:50:38.431Z,86.52
2017-11-17T03:53:06.116Z,86.57
2017-11-17T03:55:33.723Z,86.15
2017-11-17T03:58:01.301Z,86.25
2017-11-17T04:00:28.923Z,86.71
2017-11-17T04:02:56.487Z,86.74
2017-11-17T04:05:24.066Z,87.02
2017-11-17T04:07:51.690Z,86.08
2017-11-17T04:10:19.285Z,86.15
2017-11-17T04:12:46.852Z,86.32
2017-11-17T04:15:14.484Z,85.92
2017-11-17T04:17:42.047Z,85.85
2017-11-17T04:20:09.610Z,85.81
2017-11-17T04:22:37.218Z,86.09
2017-11-17T04:25:04.829Z,85.86
2017-11-17T04:27:32.392Z,85.47
2017-11-17T04:30:00.019Z,85.52
2017-11-17T04:32:27.578Z,85.81
2017-11-17T04:34:55.128Z,85.60
2017-11-17T04:37:23.158Z,85.22
2017-11-17T04:39:50.722Z,85.45
2017-11-17T04:42:18.277Z,85.10
2017-11-17T04:44:45.853Z,85.26
2017-11-17T04:47:13.424Z,85.41
2017-11-17T04:49:41.052Z,85.39
2017-11-17T04:52:08.675Z,84.98
2017-11-17T04:54:36.240Z,84.79
2017-11-17T04:57:03.819Z,84.64
2017-11-17T04:59:31.379Z,84.50
2017-11-17T05:01:58.944Z,84.35
2017-11-17T05:04:26.561Z,84.24
2017-11-17T05:06:54.108Z,84.27
2017-11-17T05:12:13.672Z,84.44
2017-11-17T05:14:41.264Z,84.26
2017-11-17T05:17:08.880Z,83.47
2017-11-17T05:19:36.519Z,84.17
2017-11-17T05:22:04.075Z,85.06
2017-11-17T05:24:35.242Z,84.76
2017-11-17T05:27:02.842Z,84.99
2017-11-17T05:29:30.411Z,84.60
2017-11-17T05:31:57.985Z,84.55
2017-11-17T05:34:25.582Z,84.99
2017-11-17T05:36:53.153Z,84.89
2017-11-17T05:39:20.714Z,84.86
2017-11-17T05:41:48.287Z,84.73
2017-11-17T05:44:15.853Z,85.16
2017-11-17T05:46:43.445Z,85.39
2017-11-17T05:49:11.038Z,85.01
2017-11-17T05:51:38.588Z,84.42
2017-11-17T05:54:06.300Z,84.14
2017-11-17T05:56:33.853Z,84.61
2017-11-17T05:59:03.258Z,84.67
2017-11-17T06:01:30.867Z,84.83
2017-11-17T06:03:58.428Z,84.66
2017-11-17T06:06:25.987Z,84.47
2017-11-17T06:08:53.616Z,84.47
2017-11-17T06:11:21.168Z,84.41
2017-11-17T06:13:48.723Z,84.37
2017-11-17T06:16:16.382Z,84.43
2017-11-17T06:18:43.937Z,84.82
2017-11-17T06:21:11.641Z,85.03
2017-11-17T06:23:39.246Z,84.87
2017-11-17T06:26:06.815Z,85.07
2017-11-17T06:28:34.380Z,85.40
2017-11-17T06:31:01.948Z,85.15
2017-11-17T06:33:29.822Z,85.10
2017-11-17T06:35:57.433Z,85.28
2017-11-17T06:38:25.056Z,85.42
2017-11-17T06:40:52.675Z,85.24
2017-11-17T06:43:25.126Z,85.47
2017-11-17T06:45:52.693Z,85.54
2017-11-17T06:48:20.412Z,84.37
2017-11-17T06:50:48.047Z,83.75
2017-11-17T06:53:15.606Z,83.67
2017-11-17T06:55:43.235Z,83.43
2017-11-17T06:58:13.742Z,83.19
2017-11-17T07:00:41.288Z,83.36
2017-11-17T07:03:09.120Z,82.87
2017-11-17T07:05:36.734Z,82.58
2017-11-17T07:08:04.302Z,82.99
2017-11-17T07:10:31.872Z,82.01
2017-11-17T07:12:59.804Z,82.01
2017-11-17T07:15:27.404Z,81.72
2017-11-17T07:17:54.953Z,81.60
2017-11-17T07:20:22.562Z,81.19
2017-11-17T07:22:50.117Z,81.40
2017-11-17T07:25:17.670Z,81.19
2017-11-17T07:27:45.268Z,81.37
2017-11-17T07:30:12.827Z,81.33
2017-11-17T07:32:40.378Z,81.52
2017-11-17T07:35:09.507Z,81.85
2017-11-17T07:37:37.080Z,82.12
2017-11-17T07:40:04.626Z,82.23
2017-11-17T07:42:32.247Z,82.08
2017-11-17T07:44:59.829Z,82.65
2017-11-17T07:47:27.646Z,82.29
2017-11-17T07:49:55.235Z,82.24
2017-11-17T07:52:22.807Z,82.38
2017-11-17T07:54:50.355Z,82.62
2017-11-17T07:57:18.095Z,83.03
2017-11-17T07:59:45.655Z,83.13
2017-11-17T08:02:13.295Z,83.18
2017-11-17T08:04:40.889Z,83.78
2017-11-17T08:07:08.677Z,83.76
2017-11-17T08:09:36.958Z,84.28
2017-11-17T08:12:04.525Z,84.72
2017-11-17T08:14:32.103Z,84.79
2017-11-17T08:19:58.763Z,84.77
2017-11-17T08:22:26.384Z,85.13
2017-11-17T08:24:54.041Z,85.38
2017-11-17T08:27:21.624Z,85.26
2017-11-17T08:29:49.181Z,86.07
2017-11-17T08:32:16.763Z,85.22
2017-11-17T08:34:44.324Z,85.06
2017-11-17T08:37:12.260Z,85.34
2017-11-17T08:39:39.894Z,85.27
2017-11-17T08:42:07.457Z,85.29
2017-11-17T08:44:35.093Z,85.15
2017-11-17T08:47:02.708Z,84.48
2017-11-17T08:49:30.257Z,84.22
2017-11-17T08:51:57.814Z,84.87
2017-11-17T08:54:25.410Z,84.04
2017-11-17T08:56:52.975Z,83.78
2017-11-17T08:59:20.572Z,83.79
2017-11-17T09:01:48.152Z,83.64
2017-11-17T09:04:15.808Z,83.54
2017-11-17T09:06:43.397Z,83.59
2017-11-17T09:09:11.190Z,83.77
2017-11-17T09:11:38.793Z,83.78
2017-11-17T09:14:06.350Z,84.02
2017-11-17T09:16:34.029Z,83.59
2017-11-17T09:19:01.582Z,84.28
2017-11-17T09:21:29.135Z,84.37
2017-11-17T09:23:56.758Z,84.35
2017-11-17T09:26:25.118Z,84.31
2017-11-17T09:28:52.702Z,84.10
2017-11-17T09:31:20.287Z,84.52
2017-11-17T09:33:47.879Z,84.36
2017-11-17T09:36:15.436Z,83.97
2017-11-17T09:38:43.057Z,83.99
2017-11-17T09:41:10.622Z,83.82
2017-11-17T09:43:38.191Z,83.63
2017-11-17T09:46:05.838Z,83.51
2017-11-17T09:48:33.423Z,83.30
2017-11-17T09:51:01.048Z,83.98
2017-11-17T09:53:28.664Z,83.63
2017-11-17T09:55:56.260Z,83.68
2017-11-17T09:58:24.319Z,83.87
2017-11-17T10:00:51.989Z,84.00
2017-11-17T10:03:19.575Z,83.74
2017-11-17T10:05:47.147Z,84.18
2017-11-17T10:08:14.793Z,84.00
2017-11-17T10:10:42.365Z,84.29
2017-11-17T10:13:09.963Z,84.59
2017-11-17T10:15:37.681Z,83.90
2017-11-17T10:18:05.443Z,83.89
2017-11-17T10:20:33.020Z,83.61
2017-11-17T10:23:00.611Z,83.30
2017-11-17T10:25:28.256Z,83.00
2017-11-17T10:27:55.858Z,83.06
2017-11-17T10:30:23.447Z,83.22
2017-11-17T10:32:51.049Z,82.40
2017-11-17T10:35:18.640Z,82.28
2017-11-17T10:37:46.190Z,82.86
2017-11-17T10:40:13.849Z,82.56
2017-11-17T10:42:41.404Z,82.54
2017-11-17T10:45:09.121Z,82.19
2017-11-17T10:47:36.828Z,81.78
2017-11-17T10:50:04.408Z,82.64
2017-11-17T10:52:32.035Z,82.86
2017-11-17T10:54:59.613Z,82.66
2017-11-17T10:57:27.175Z,82.91
2017-11-17T10:59:57.710Z,82.66
2017-11-17T11:02:25.289Z,82.59
2017-11-17T11:04:55.742Z,82.36
2017-11-17T11:07:23.332Z,82.31
2017-11-17T11:09:52.078Z,82.29
2017-11-17T11:12:19.968Z,82.25
2017-11-17T11:14:47.999Z,82.54
2017-11-17T11:17:18.209Z,81.47
2017-11-17T11:19:45.842Z,81.91
2017-11-17T11:22:15.164Z,82.10
2017-11-17T11:24:43.012Z,82.22
2017-11-17T11:27:10.809Z,82.86
2017-11-17T11:29:38.679Z,82.35
2017-11-17T11:32:06.277Z,83.21
2017-11-17T11:34:33.857Z,83.89
2017-11-17T11:37:01.472Z,83.27
2017-11-17T11:39:29.082Z,83.45
2017-11-17T11:41:56.751Z,84.12
2017-11-17T11:44:26.072Z,84.17
2017-11-17T11:46:53.688Z,84.36
2017-11-17T11:49:21.250Z,84.37
2017-11-17T11:51:49.125Z,83.83
2017-11-17T11:54:16.924Z,83.72
2017-11-17T11:56:44.563Z,83.90
2017-11-17T11:59:12.309Z,83.96
2017-11-17T12:01:39.926Z,83.81
2017-11-17T12:04:07.547Z,84.51
2017-11-17T12:06:35.112Z,84.46
2017-11-17T12:09:02.725Z,84.13
2017-11-17T12:11:30.361Z,84.57
2017-11-17T12:13:57.917Z,84.37
2017-11-17T12:16:25.498Z,84.51
2017-11-17T12:18:53.111Z,84.83
2017-11-17T12:21:20.744Z,84.24
2017-11-17T12:23:48.309Z,85.01
2017-11-17T12:26:15.907Z,85.23
2017-11-17T12:28:43.473Z,85.42
2017-11-17T12:31:11.304Z,85.36
2017-11-17T12:33:38.879Z,85.15
2017-11-17T12:36:06.625Z,85.30
2017-11-17T12:38:34.185Z,85.16
2017-11-17T12:41:01.762Z,85.04
2017-11-17T12:43:29.325Z,85.42
2017-11-17T12:45:56.895Z,85.53
2017-11-17T12:48:24.840Z,85.08
2017-11-17T12:50:52.422Z,85.24
2017-11-17T12:53:19.993Z,85.24
2017-11-17T12:55:47.599Z,85.39
2017-11-17T12:58:15.402Z,85.31
2017-11-17T13:00:44.025Z,86.04
2017-11-17T13:03:11.874Z,85.83
2017-11-17T13:05:39.431Z,85.76
2017-11-17T13:08:07.038Z,85.53
2017-11-17T13:10:35.368Z,85.61
2017-11-17T13:13:02.948Z,85.05
2017-11-17T13:15:30.549Z,85.42
2017-11-17T13:17:58.205Z,85.49
2017-11-17T13:20:25.770Z,85.63
2017-11-17T13:22:53.382Z,85.68
2017-11-17T13:25:21.019Z,85.69
2017-11-17T13:27:48.612Z,86.28
2017-11-17T13:30:16.199Z,86.61
2017-11-17T13:32:43.813Z,86.56
2017-11-17T13:35:11.575Z,86.18
2017-11-17T13:37:39.168Z,86.78
2017-11-17T13:40:06.808Z,86.94
2017-11-17T13:42:35.962Z,87.07
2017-11-17T13:45:04.289Z,86.88
2017-11-17T13:47:33.023Z,86.76
2017-11-17T13:50:00.630Z,86.19
2017-11-17T13:52:28.210Z,86.13
2017-11-17T13:54:55.796Z,86.57
2017-11-17T13:57:23.381Z,86.73
2017-11-17T13:59:50.953Z,86.75
2017-11-17T14:02:18.549Z,86.51
2017-11-17T14:04:46.112Z,86.50
2017-11-17T14:07:13.682Z,86.70
2017-11-17T14:09:41.345Z,86.19
2017-11-17T14:12:09.045Z,86.92
2017-11-17T14:14:36.636Z,87.33
2017-11-17T14:17:04.236Z,87.47
2017-11-17T14:19:31.794Z,87.32
2017-11-17T14:21:59.361Z,87.32
2017-11-17T14:24:26.965Z,87.27
2017-11-17T14:26:54.514Z,87.33
2017-11-17T14:29:22.112Z,87.03
2017-11-17T14:31:49.900Z,87.00
2017-11-17T14:34:17.517Z,86.77
2017-11-17T14:36:45.092Z,86.28
2017-11-17T14:39:12.937Z,86.68
2017-11-17T14:41:40.527Z,87.01
2017-11-17T14:44:08.111Z,87.72
2017-11-17T14:46:35.671Z,88.28
2017-11-17T14:49:03.261Z,88.13
2017-11-17T14:51:31.309Z,88.38
2017-11-17T14:53:58.893Z,88.34
2017-11-17T14:56:26.454Z,88.24
2017-11-17T14:58:54.036Z,88.68
2017-11-17T15:01:21.650Z,88.89
2017-11-17T15:03:49.244Z,89.24
2017-11-17T15:06:16.844Z,89.29
2017-11-17T15:08:44.437Z,89.56
2017-11-17T15:11:13.790Z,89.61
2017-11-17T15:13:42.555Z,89.44
2017-11-17T15:16:10.236Z,89.48
2017-11-17T15:18:37.875Z,89.15
2017-11-17T15:21:08.109Z,89.27
2017-11-17T15:23:36.455Z,88.99
2017-11-17T15:26:04.071Z,89.10
2017-11-17T15:28:31.647Z,88.94
2017-11-17T15:30:59.259Z,89.24
2017-11-17T15:33:27.465Z,89.27
2017-11-17T15:35:55.054Z,89.22
2017-11-17T15:38:22.659Z,89.21
2017-11-17T15:40:50.263Z,88.94
2017-11-17T15:43:19.234Z,88.42
2017-11-17T15:45:46.991Z,88.39
2017-11-17T15:48:14.638Z,88.38
2017-11-17T15:50:42.205Z,87.87
2017-11-17T15:53:09.803Z,87.84
2017-11-17T15:55:39.139Z,87.49
2017-11-17T15:58:06.792Z,87.79
2017-11-17T16:00:34.412Z,87.75
2017-11-17T16:03:03.124Z,88.13
2017-11-17T16:05:31.514Z,88.32
2017-11-17T16:07:59.215Z,88.01
2017-11-17T16:10:26.810Z,88.20
2017-11-17T16:12:54.400Z,88.31
2017-11-17T16:15:22.008Z,88.37
2017-11-17T16:17:49.587Z,88.09
2017-11-17T16:20:17.241Z,88.17
2017-11-17T16:22:44.824Z,88.06
2017-11-17T16:25:13.845Z,87.92
2017-11-17T16:27:41.452Z,88.30
2017-11-17T16:30:09.086Z,88.26
2017-11-17T16:32:36.670Z,88.39
2017-11-17T16:35:04.337Z,88.33
2017-11-17T16:37:31.997Z,88.59
2017-11-17T16:39:59.663Z,88.59
2017-11-17T16:42:27.273Z,88.68
2017-11-17T16:44:54.875Z,88.83
2017-11-17T16:47:22.466Z,88.77
2017-11-17T16:49:50.052Z,88.89
2017-11-17T16:52:17.617Z,89.12
2017-11-17T16:54:45.229Z,89.20
2017-11-17T16:57:12.862Z,89.24
2017-11-17T16:59:40.479Z,89.87
2017-11-17T17:02:08.123Z,89.53
2017-11-17T17:04:35.698Z,89.60
2017-11-17T17:07:03.266Z,89.53
2017-11-17T17:09:30.891Z,89.34
2017-11-17T17:11:58.456Z,89.57
2017-11-17T17:14:26.038Z,89.16
2017-11-17T17:16:53.724Z,89.20
2017-11-17T17:19:21.297Z,88.91
2017-11-17T17:21:48.860Z,88.96
2017-11-17T17:24:16.469Z,88.76
2017-11-17T17:26:44.042Z,88.58
2017-11-17T17:29:12.643Z,88.40
2017-11-17T17:31:40.323Z,88.65
2017-11-17T17:34:08.129Z,88.96
2017-11-17T17:36:35.706Z,88.76
2017-11-17T17:39:03.380Z,89.29
2017-11-17T17:41:30.931Z,88.58
2017-11-17T17:43:58.534Z,88.78
2017-11-17T17:46:26.112Z,88.92
2017-11-17T17:48:53.781Z,89.43
2017-11-17T17:51:21.393Z,89.12
2017-11-17T17:53:49.061Z,89.27
2017-11-17T17:56:16.709Z,90.03
2017-11-17T17:58:44.324Z,90.23
2017-11-17T18:01:12.018Z,90.25
2017-11-17T18:03:39.590Z,89.95
2017-11-17T18:06:07.221Z,89.71
2017-11-17T18:08:34.872Z,89.69
2017-11-17T18:11:02.430Z,90.13
2017-11-17T18:13:30.044Z,90.55
2017-11-17T18:15:57.659Z,90.33
2017-11-17T18:18:25.252Z,90.25
2017-11-17T18:20:52.840Z,90.52
2017-11-17T18:23:20.545Z,90.02
2017-11-17T18:25:49.480Z,89.73
2017-11-17T18:28:17.136Z,89.96
2017-11-17T18:30:44.753Z,89.53
2017-11-17T18:33:12.499Z,89.85
2017-11-17T18:35:40.066Z,89.96
2017-11-17T18:38:07.721Z,89.79
2017-11-17T18:40:35.248Z,89.55
2017-11-17T18:43:02.838Z,89.76
2017-11-17T18:45:30.430Z,89.87
2017-11-17T18:47:57.987Z,89.97
2017-11-17T18:50:25.762Z,90.18
2017-11-17T18:55:25.130Z,90.50
2017-11-17T18:57:52.694Z,90.36
2017-11-17T19:00:20.300Z,90.37
2017-11-17T19:02:47.891Z,90.18
2017-11-17T19:05:15.474Z,90.25
2017-11-17T19:07:43.051Z,90.17
2017-11-17T19:10:10.742Z,90.43
2017-11-17T19:12:38.322Z,90.05
2017-11-17T19:15:06.023Z,90.52
2017-11-17T19:17:33.597Z,90.47
2017-11-17T19:20:01.188Z,90.56
2017-11-17T19:22:28.751Z,90.30
2017-11-17T19:24:56.822Z,90.78
2017-11-17T19:27:24.451Z,90.74
2017-11-17T19:29:53.640Z,90.97
2017-11-17T19:32:21.408Z,90.96
2017-11-17T19:34:48.986Z,91.21
2017-11-17T19:37:16.558Z,90.95
2017-11-17T19:39:44.167Z,91.04
2017-11-17T19:42:11.729Z,90.95
2017-11-17T19:44:39.295Z,91.21
2017-11-17T19:47:06.983Z,90.89
2017-11-17T19:49:34.536Z,91.05
2017-11-17T19:52:02.106Z,91.21
2017-11-17T19:54:29.756Z,91.37
2017-11-17T19:56:57.327Z,91.18
2017-11-17T19:59:26.472Z,91.40
2017-11-17T20:01:54.026Z,91.08
2017-11-17T20:04:21.610Z,91.25
2017-11-17T20:06:49.154Z,91.54
2017-11-17T20:09:16.736Z,91.47
2017-11-17T20:11:44.318Z,91.61
2017-11-17T20:14:11.881Z,91.42
2017-11-17T20:16:39.443Z,91.19
2017-11-17T20:19:07.039Z,91.17
2017-11-17T20:21:34.598Z,91.07
2017-11-17T20:24:02.164Z,91.38
2017-11-17T20:26:29.723Z,91.16
2017-11-17T20:28:57.313Z,91.54
2017-11-17T20:31:24.880Z,91.31
2017-11-17T20:33:52.553Z,91.23
2017-11-17T20:36:21.347Z,91.54
2017-11-17T20:38:48.950Z,91.55
2017-11-17T20:41:16.528Z,91.28
2017-11-17T20:43:44.193Z,91.37
2017-11-17T20:46:11.823Z,91.40
2017-11-17T20:48:39.392Z,91.72
2017-11-17T20:51:07.015Z,91.91
2017-11-17T20:53:34.716Z,91.82
2017-11-17T20:56:02.314Z,92.05
2017-11-17T20:58:29.915Z,92.11
2017-11-17T21:00:57.488Z,92.19
2017-11-17T21:03:25.087Z,92.22
2017-11-17T21:05:52.764Z,91.94
2017-11-17T21:08:21.348Z,91.76
2017-11-17T21:10:49.018Z,91.75
2017-11-17T21:13:16.616Z,91.95
2017-11-17T21:15:44.236Z,91.92
2017-11-17T21:18:11.835Z,91.86
2017-11-17T21:20:39.590Z,92.22
2017-11-17T21:23:07.225Z,92.06
2017-11-17T21:25:34.874Z,91.99
2017-11-17T21:28:02.490Z,92.26
2017-11-17T21:30:30.879Z,91.95
2017-11-17T21:32:58.447Z,92.26
2017-11-17T21:35:26.033Z,92.47
2017-11-17T21:37:53.611Z,92.54
2017-11-17T21:40:21.212Z,92.52
2017-11-17T21:42:48.868Z,92.85
2017-11-17T21:45:16.951Z,92.67
2017-11-17T21:47:44.502Z,92.80
2017-11-17T21:50:12.320Z,93.06
2017-11-17T21:52:39.907Z,93.07
2017-11-17T21:55:07.556Z,93.19
2017-11-17T21:57:35.322Z,93.37
2017-11-17T22:00:03.013Z,93.39
2017-11-17T22:02:30.602Z,93.34
2017-11-17T22:04:58.227Z,93.49
2017-11-17T22:07:25.955Z,93.61
2017-11-17T22:09:53.560Z,93.60
2017-11-17T22:12:21.160Z,93.53
2017-11-17T22:14:48.700Z,93.27
2017-11-17T22:17:16.683Z,93.44
2017-11-17T22:19:44.327Z,93.61
2017-11-17T22:22:11.936Z,93.80
2017-11-17T22:24:39.492Z,93.81
2017-11-17T22:27:07.292Z,93.83
2017-11-17T22:29:34.836Z,93.49
2017-11-17T22:32:02.385Z,93.46
2017-11-17T22:34:29.966Z,93.32
2017-11-17T22:36:57.510Z,92.29
2017-11-17T22:39:25.073Z,91.50
2017-11-17T22:41:52.662Z,91.64
2017-11-17T22:44:20.222Z,91.69
2017-11-17T22:46:47.773Z,91.92
2017-11-17T22:49:15.373Z,91.86
2017-11-17T22:51:42.948Z,91.64
2017-11-17T22:54:10.628Z,91.52
2017-11-17T22:56:38.205Z,91.26
2017-11-17T22:59:05.765Z,91.00
2017-11-17T23:01:34.790Z,90.71
2017-11-17T23:04:02.514Z,90.84
2017-11-17T23:06:30.085Z,90.69
2017-11-17T23:08:57.684Z,90.88
2017-11-17T23:11:25.325Z,90.69
2017-11-17T23:13:52.895Z,91.00
2017-11-17T23:16:20.480Z,90.83
2017-11-17T23:18:48.132Z,91.22
2017-11-17T23:21:15.707Z,91.15
2017-11-17T23:23:43.296Z,91.16
2017-11-17T23:26:10.895Z,91.37
2017-11-17T23:28:38.458Z,91.98
2017-11-17T23:31:06.125Z,92.05
2017-11-17T23:33:33.816Z,91.96
2017-11-17T23:36:01.394Z,91.59
2017-11-17T23:38:28.980Z,91.19
2017-11-17T23:40:56.575Z,91.31
2017-11-17T23:43:24.252Z,91.29
2017-11-17T23:45:51.854Z,91.15
2017-11-17T23:48:19.456Z,91.50
2017-11-17T23:50:47.062Z,91.55
2017-11-17T23:53:14.703Z,91.62
2017-11-17T23:55:42.320Z,91.64
2017-11-17T23:58:10.868Z,91.95
